createdAt,value
2019-03-25T00:02:27.129Z,5.61
2019-03-25T00:04:53.330Z,5.61
2019-03-25T00:07:19.492Z,5.62
2019-03-25T00:09:45.725Z,5.63
2019-03-25T00:12:11.869Z,5.58
2019-03-25T00:14:38.040Z,5.57
2019-03-25T00:17:05.432Z,5.50
2019-03-25T00:19:31.552Z,5.53
2019-03-25T00:21:57.777Z,5.58
2019-03-25T00:24:23.924Z,5.61
2019-03-25T00:26:50.187Z,5.63
2019-03-25T00:29:16.434Z,5.61
2019-03-25T00:31:42.688Z,5.58
2019-03-25T00:34:09.026Z,5.62
2019-03-25T00:36:35.201Z,5.65
2019-03-25T00:39:01.460Z,5.67
2019-03-25T00:41:27.692Z,5.54
2019-03-25T00:43:53.934Z,5.51
2019-03-25T00:46:20.117Z,5.49
2019-03-25T00:48:46.261Z,5.38
2019-03-25T00:51:12.512Z,5.40
2019-03-25T00:53:38.700Z,5.47
2019-03-25T00:56:04.943Z,5.51
2019-03-25T00:58:31.172Z,5.56
2019-03-25T01:00:57.434Z,5.59
2019-03-25T01:03:25.681Z,5.59
2019-03-25T01:05:51.983Z,5.59
2019-03-25T01:08:20.274Z,5.59
2019-03-25T01:10:46.518Z,5.60
2019-03-25T01:13:12.653Z,5.60
2019-03-25T01:15:38.984Z,5.61
2019-03-25T01:18:16.092Z,5.65
2019-03-25T01:20:33.329Z,5.67
2019-03-25T01:22:59.691Z,5.68
2019-03-25T01:25:25.935Z,5.69
2019-03-25T01:27:52.203Z,5.72
2019-03-25T01:30:18.475Z,5.68
2019-03-25T01:32:44.820Z,5.58
2019-03-25T01:35:12.241Z,5.57
2019-03-25T01:37:38.536Z,5.56
2019-03-25T01:40:06.719Z,5.64
2019-03-25T01:42:33.149Z,5.66
2019-03-25T01:44:59.381Z,5.53
2019-03-25T01:47:25.638Z,5.59
2019-03-25T01:49:51.963Z,5.64
2019-03-25T01:52:18.156Z,5.58
2019-03-25T01:54:44.384Z,5.58
2019-03-25T01:57:10.693Z,5.56
2019-03-25T01:59:36.897Z,5.58
2019-03-25T02:02:03.173Z,5.56
2019-03-25T02:04:29.520Z,5.62
2019-03-25T02:06:58.532Z,5.57
2019-03-25T02:09:24.888Z,5.62
2019-03-25T02:11:51.050Z,5.63
2019-03-25T02:14:17.218Z,5.66
2019-03-25T02:16:43.501Z,5.69
2019-03-25T02:19:09.780Z,5.74
2019-03-25T02:21:36.078Z,5.79
2019-03-25T02:24:02.352Z,5.85
2019-03-25T02:26:28.549Z,5.88
2019-03-25T02:28:54.933Z,5.89
2019-03-25T02:31:21.100Z,5.79
2019-03-25T02:33:47.277Z,5.77
2019-03-25T02:36:13.653Z,5.78
2019-03-25T02:38:39.883Z,5.80
2019-03-25T02:41:06.114Z,5.84
2019-03-25T02:43:32.355Z,5.87
2019-03-25T02:45:58.628Z,5.89
2019-03-25T02:48:24.906Z,5.92
2019-03-25T02:50:51.163Z,5.94
2019-03-25T02:53:17.501Z,5.95
2019-03-25T02:55:43.737Z,5.96
2019-03-25T02:58:09.899Z,5.94
2019-03-25T03:00:37.261Z,5.93
2019-03-25T03:03:05.066Z,5.95
2019-03-25T03:05:31.209Z,5.98
2019-03-25T03:07:57.365Z,5.99
2019-03-25T03:10:23.552Z,5.99
2019-03-25T03:12:49.807Z,5.95
2019-03-25T03:15:15.986Z,5.92
2019-03-25T03:17:42.142Z,5.85
2019-03-25T03:20:08.504Z,5.87
2019-03-25T03:22:34.878Z,5.87
2019-03-25T03:25:01.144Z,5.88
2019-03-25T03:27:29.947Z,5.89
2019-03-25T03:29:55.687Z,5.89
2019-03-25T03:32:21.975Z,5.93
2019-03-25T03:34:48.158Z,5.94
2019-03-25T03:37:14.440Z,5.93
2019-03-25T03:39:40.729Z,5.92
2019-03-25T03:42:06.987Z,5.92
2019-03-25T03:44:33.328Z,5.92
2019-03-25T03:46:59.518Z,5.93
2019-03-25T03:49:25.859Z,5.90
2019-03-25T03:51:53.676Z,5.89
2019-03-25T03:54:19.911Z,5.91
2019-03-25T03:56:47.394Z,5.88
2019-03-25T03:59:14.098Z,5.84
2019-03-25T04:01:40.278Z,5.74
2019-03-25T04:04:06.602Z,5.77
2019-03-25T04:06:32.913Z,5.80
2019-03-25T04:08:59.162Z,5.83
2019-03-25T04:11:25.469Z,5.76
2019-03-25T04:13:51.892Z,5.79
2019-03-25T04:16:18.108Z,5.81
2019-03-25T04:18:44.425Z,5.84
2019-03-25T04:21:10.721Z,5.88
2019-03-25T04:23:36.994Z,5.84
2019-03-25T04:26:03.369Z,5.88
2019-03-25T04:28:29.736Z,5.90
2019-03-25T04:30:55.924Z,5.90
2019-03-25T04:33:22.173Z,5.89
2019-03-25T04:35:48.459Z,5.74
2019-03-25T04:38:14.738Z,5.72
2019-03-25T04:40:40.895Z,5.76
2019-03-25T04:43:07.167Z,5.75
2019-03-25T04:45:33.418Z,5.73
2019-03-25T04:47:59.705Z,5.72
2019-03-25T04:50:25.973Z,5.74
2019-03-25T04:52:52.232Z,5.73
2019-03-25T04:55:18.486Z,5.72
2019-03-25T04:57:44.625Z,5.73
2019-03-25T05:00:11.437Z,5.77
2019-03-25T05:02:37.713Z,5.78
2019-03-25T05:05:06.862Z,5.77
2019-03-25T05:07:33.165Z,5.78
2019-03-25T05:09:59.415Z,5.77
2019-03-25T05:12:25.700Z,5.76
2019-03-25T05:14:52.001Z,5.76
2019-03-25T05:17:18.331Z,5.76
2019-03-25T05:19:44.609Z,5.79
2019-03-25T05:22:11.172Z,5.79
2019-03-25T05:24:37.534Z,5.80
2019-03-25T05:27:03.751Z,5.77
2019-03-25T05:29:30.186Z,5.76
2019-03-25T05:31:56.570Z,5.77
2019-03-25T05:34:22.811Z,5.74
2019-03-25T05:36:49.042Z,5.81
2019-03-25T05:39:15.404Z,5.79
2019-03-25T05:41:41.563Z,5.82
2019-03-25T05:44:08.001Z,5.84
2019-03-25T05:46:34.217Z,5.85
2019-03-25T05:49:00.389Z,5.86
2019-03-25T05:51:26.623Z,5.87
2019-03-25T05:53:52.759Z,5.91
2019-03-25T05:56:19.021Z,5.96
2019-03-25T05:58:45.294Z,5.95
2019-03-25T06:01:11.613Z,5.95
2019-03-25T06:03:38.234Z,5.94
2019-03-25T06:06:04.495Z,5.93
2019-03-25T06:08:30.751Z,5.96
2019-03-25T06:10:56.979Z,5.97
2019-03-25T06:13:23.178Z,5.97
2019-03-25T06:15:49.427Z,5.84
2019-03-25T06:18:15.708Z,5.82
2019-03-25T06:20:41.978Z,5.79
2019-03-25T06:23:08.263Z,5.81
2019-03-25T06:25:34.557Z,5.85
2019-03-25T06:28:01.985Z,5.85
2019-03-25T06:30:28.158Z,5.85
2019-03-25T06:32:54.387Z,5.88
2019-03-25T06:35:20.547Z,5.93
2019-03-25T06:37:46.719Z,5.95
2019-03-25T06:40:12.993Z,5.98
2019-03-25T06:42:39.132Z,6.01
2019-03-25T06:45:07.690Z,6.02
2019-03-25T06:47:33.982Z,6.04
2019-03-25T06:50:00.462Z,6.06
2019-03-25T06:52:26.751Z,6.09
2019-03-25T06:54:53.014Z,6.11
2019-03-25T06:57:25.532Z,6.13
2019-03-25T06:59:47.306Z,6.11
2019-03-25T07:02:13.463Z,6.10
2019-03-25T07:04:39.828Z,6.11
2019-03-25T07:07:06.089Z,6.16
2019-03-25T07:09:32.251Z,6.18
2019-03-25T07:11:58.795Z,6.19
2019-03-25T07:14:25.221Z,6.20
2019-03-25T07:16:51.509Z,6.21
2019-03-25T07:19:17.748Z,6.22
2019-03-25T07:21:43.974Z,6.22
2019-03-25T07:24:10.117Z,6.25
2019-03-25T07:26:37.787Z,6.27
2019-03-25T07:29:03.994Z,6.29
2019-03-25T07:31:30.159Z,6.30
2019-03-25T07:33:56.282Z,6.30
2019-03-25T07:36:22.445Z,6.31
2019-03-25T07:38:48.683Z,6.32
2019-03-25T07:41:17.041Z,6.36
2019-03-25T07:43:43.034Z,6.42
2019-03-25T07:46:11.089Z,6.44
2019-03-25T07:48:37.325Z,6.44
2019-03-25T07:51:03.495Z,6.48
2019-03-25T07:56:12.031Z,6.40
2019-03-25T07:58:39.637Z,6.43
2019-03-25T08:01:10.586Z,6.51
2019-03-25T08:03:36.883Z,6.45
2019-03-25T08:06:03.067Z,6.60
2019-03-25T08:08:29.381Z,6.59
2019-03-25T08:10:55.591Z,6.63
2019-03-25T08:13:21.920Z,6.62
2019-03-25T08:15:48.231Z,6.60
2019-03-25T08:18:14.507Z,6.58
2019-03-25T08:20:40.627Z,6.60
2019-03-25T08:23:06.752Z,6.64
2019-03-25T08:25:32.907Z,6.68
2019-03-25T08:28:00.270Z,6.66
2019-03-25T08:30:26.860Z,6.66
2019-03-25T08:32:52.975Z,6.62
2019-03-25T08:35:19.010Z,6.60
2019-03-25T08:37:45.127Z,6.53
2019-03-25T08:40:11.420Z,6.48
2019-03-25T08:42:39.476Z,6.47
2019-03-25T08:45:06.074Z,6.50
2019-03-25T08:47:32.233Z,6.55
2019-03-25T08:49:58.447Z,6.61
2019-03-25T08:52:24.476Z,6.65
2019-03-25T08:54:50.662Z,6.62
2019-03-25T08:57:16.844Z,6.58
2019-03-25T08:59:42.905Z,6.60
2019-03-25T09:02:09.033Z,6.62
2019-03-25T09:04:35.293Z,6.61
2019-03-25T09:07:01.451Z,6.56
2019-03-25T09:09:27.732Z,6.54
2019-03-25T09:11:53.887Z,6.56
2019-03-25T09:14:20.048Z,6.59
2019-03-25T09:16:46.283Z,6.57
2019-03-25T09:19:17.745Z,6.54
2019-03-25T09:21:43.879Z,6.50
2019-03-25T09:24:10.164Z,6.38
2019-03-25T09:26:37.825Z,6.29
2019-03-25T09:29:03.944Z,6.37
2019-03-25T09:31:36.706Z,6.40
2019-03-25T09:33:58.155Z,6.41
2019-03-25T09:36:24.303Z,6.47
2019-03-25T09:38:50.950Z,6.47
2019-03-25T09:41:17.516Z,6.51
2019-03-25T09:43:43.730Z,6.52
2019-03-25T09:46:09.862Z,6.53
2019-03-25T09:48:36.896Z,6.56
2019-03-25T09:51:03.734Z,6.56
2019-03-25T09:53:30.281Z,6.54
2019-03-25T09:55:56.378Z,6.47
2019-03-25T09:58:22.492Z,6.48
2019-03-25T10:00:48.644Z,6.52
2019-03-25T10:03:14.760Z,6.48
2019-03-25T10:05:40.906Z,6.38
2019-03-25T10:08:07.043Z,6.39
2019-03-25T10:10:33.112Z,6.35
2019-03-25T10:12:59.344Z,6.43
2019-03-25T10:15:25.614Z,6.52
2019-03-25T10:17:51.733Z,6.52
2019-03-25T10:20:17.888Z,6.59
2019-03-25T10:22:44.003Z,6.69
2019-03-25T10:25:10.923Z,6.79
2019-03-25T10:27:37.663Z,6.84
2019-03-25T10:30:13.055Z,6.79
2019-03-25T10:32:39.212Z,6.82
2019-03-25T10:35:06.171Z,6.90
2019-03-25T10:37:32.343Z,7.03
2019-03-25T10:39:58.500Z,7.12
2019-03-25T10:42:24.639Z,7.17
2019-03-25T10:44:50.828Z,7.21
2019-03-25T10:47:16.950Z,7.28
2019-03-25T10:49:46.942Z,7.29
2019-03-25T10:52:13.232Z,7.35
2019-03-25T10:54:39.403Z,7.44
2019-03-25T10:57:06.201Z,7.52
2019-03-25T10:59:32.402Z,7.54
2019-03-25T11:01:58.523Z,7.54
2019-03-25T11:04:24.740Z,7.64
2019-03-25T11:06:50.869Z,7.73
2019-03-25T11:09:19.202Z,7.77
2019-03-25T11:11:45.326Z,7.76
2019-03-25T11:14:11.499Z,7.71
2019-03-25T11:16:37.722Z,7.69
2019-03-25T11:19:03.882Z,7.66
2019-03-25T11:21:30.003Z,7.64
2019-03-25T11:23:56.133Z,7.71
2019-03-25T11:26:22.249Z,7.76
2019-03-25T11:28:48.323Z,7.81
2019-03-25T11:31:14.450Z,7.86
2019-03-25T11:33:40.561Z,7.83
2019-03-25T11:36:06.794Z,7.89
2019-03-25T11:38:32.924Z,7.89
2019-03-25T11:40:59.039Z,7.98
2019-03-25T11:43:25.172Z,8.07
2019-03-25T11:45:51.381Z,8.09
2019-03-25T11:48:17.511Z,8.10
2019-03-25T11:50:43.642Z,8.16
2019-03-25T11:53:09.771Z,8.19
2019-03-25T11:55:35.882Z,8.20
2019-03-25T11:58:01.923Z,8.22
2019-03-25T12:00:28.169Z,8.20
2019-03-25T12:02:54.305Z,8.15
2019-03-25T12:05:20.541Z,8.13
2019-03-25T12:07:46.670Z,8.13
2019-03-25T12:10:12.787Z,8.11
2019-03-25T12:12:38.912Z,8.09
2019-03-25T12:15:05.673Z,8.13
2019-03-25T12:17:31.795Z,8.16
2019-03-25T12:19:57.918Z,8.33
2019-03-25T12:22:24.063Z,8.39
2019-03-25T12:24:50.187Z,8.55
2019-03-25T12:27:16.355Z,8.70
2019-03-25T12:29:45.314Z,8.84
2019-03-25T12:32:11.427Z,8.99
2019-03-25T12:34:37.560Z,9.06
2019-03-25T12:37:03.680Z,9.19
2019-03-25T12:39:29.819Z,9.30
2019-03-25T12:41:55.876Z,9.29
2019-03-25T12:44:22.009Z,9.31
2019-03-25T12:46:48.157Z,9.31
2019-03-25T12:49:14.277Z,9.29
2019-03-25T12:51:40.340Z,9.23
2019-03-25T12:54:06.482Z,9.16
2019-03-25T12:56:32.632Z,9.12
2019-03-25T12:58:58.687Z,9.07
2019-03-25T13:01:26.925Z,8.98
2019-03-25T13:03:53.162Z,8.92
2019-03-25T13:06:19.306Z,9.01
2019-03-25T13:08:45.430Z,9.10
2019-03-25T13:11:11.546Z,9.13
2019-03-25T13:13:37.604Z,8.99
2019-03-25T13:16:03.751Z,8.92
2019-03-25T13:18:29.889Z,8.80
2019-03-25T13:20:56.005Z,8.73
2019-03-25T13:23:22.128Z,8.75
2019-03-25T13:25:48.244Z,8.73
2019-03-25T13:28:14.376Z,8.71
2019-03-25T13:30:40.510Z,8.59
2019-03-25T13:33:06.617Z,8.58
2019-03-25T13:35:32.740Z,8.57
2019-03-25T13:37:59.095Z,8.56
2019-03-25T13:40:25.292Z,8.40
2019-03-25T14:35:44.852Z,7.69
2019-03-25T14:38:10.992Z,7.54
2019-03-25T14:40:37.153Z,7.54
2019-03-25T14:43:03.407Z,7.51
2019-03-25T14:45:29.586Z,7.55
2019-03-25T14:47:55.715Z,7.57
2019-03-25T14:50:21.875Z,7.52
2019-03-25T14:52:48.041Z,7.49
2019-03-25T14:55:16.281Z,7.49
2019-03-25T14:57:42.414Z,7.47
2019-03-25T15:00:09.555Z,7.43
2019-03-25T15:02:35.697Z,7.38
2019-03-25T15:05:02.501Z,7.28
2019-03-25T15:07:28.665Z,7.18
2019-03-25T15:09:54.803Z,7.01
2019-03-25T15:12:21.030Z,6.94
2019-03-25T15:14:47.254Z,6.97
2019-03-25T15:17:15.845Z,6.95
2019-03-25T15:19:41.988Z,6.90
2019-03-25T15:22:08.121Z,6.89
2019-03-25T15:24:34.290Z,6.84
2019-03-25T15:27:00.442Z,6.74
2019-03-25T15:29:26.590Z,6.74
2019-03-25T15:31:52.825Z,6.66
2019-03-25T15:34:18.962Z,6.64
2019-03-25T15:36:45.111Z,6.63
2019-03-25T15:39:11.285Z,6.56
2019-03-25T15:41:37.392Z,6.19
2019-03-25T15:44:03.525Z,5.83
2019-03-25T15:46:29.808Z,5.03
2019-03-25T15:48:56.087Z,4.64
2019-03-25T15:51:22.328Z,4.56
2019-03-25T15:53:48.491Z,4.40
2019-03-25T15:56:14.647Z,4.25
2019-03-25T15:58:41.019Z,4.29
2019-03-25T16:01:07.177Z,4.40
2019-03-25T16:03:35.211Z,4.54
2019-03-25T16:06:01.372Z,4.59
2019-03-25T16:08:27.391Z,4.56
2019-03-25T16:10:53.735Z,4.53
2019-03-25T16:13:19.935Z,4.64
2019-03-25T16:15:46.172Z,4.78
2019-03-25T16:18:37.277Z,4.86
2019-03-25T16:21:04.125Z,4.91
2019-03-25T16:23:30.254Z,4.98
2019-03-25T16:25:56.514Z,4.83
2019-03-25T16:28:22.762Z,4.81
2019-03-25T16:30:58.174Z,4.80
2019-03-25T16:33:16.893Z,4.86
2019-03-25T16:35:43.585Z,4.92
2019-03-25T16:38:09.812Z,4.94
2019-03-25T16:40:35.910Z,4.97
2019-03-25T16:43:02.110Z,5.00
2019-03-25T16:45:28.231Z,5.00
2019-03-25T16:47:54.416Z,5.03
2019-03-25T16:50:20.559Z,5.01
2019-03-25T16:52:46.709Z,4.97
2019-03-25T16:55:12.971Z,4.98
2019-03-25T16:57:39.090Z,4.95
2019-03-25T17:00:05.351Z,4.88
2019-03-25T17:02:31.613Z,4.83
2019-03-25T17:04:57.746Z,4.86
2019-03-25T17:07:23.870Z,4.88
2019-03-25T17:09:50.140Z,4.89
2019-03-25T17:12:16.277Z,4.89
2019-03-25T17:14:42.401Z,4.88
2019-03-25T17:17:08.529Z,4.88
2019-03-25T17:19:34.697Z,4.87
2019-03-25T17:22:00.831Z,4.84
2019-03-25T17:24:29.384Z,4.85
2019-03-25T17:26:55.641Z,4.87
2019-03-25T17:29:21.790Z,4.88
2019-03-25T17:31:47.959Z,4.88
2019-03-25T17:34:14.116Z,4.88
2019-03-25T17:36:40.226Z,4.88
2019-03-25T17:39:07.993Z,4.90
2019-03-25T17:41:34.136Z,4.89
2019-03-25T17:44:00.274Z,4.86
2019-03-25T17:46:26.567Z,4.84
2019-03-25T17:48:52.753Z,4.82
2019-03-25T17:51:18.997Z,4.80
2019-03-25T17:53:45.268Z,4.75
2019-03-25T17:56:11.392Z,4.69
2019-03-25T17:58:37.556Z,4.68
2019-03-25T18:01:05.908Z,4.63
2019-03-25T18:03:32.011Z,4.56
2019-03-25T18:05:58.153Z,4.53
2019-03-25T18:08:24.285Z,4.50
2019-03-25T18:10:53.134Z,4.48
2019-03-25T18:13:22.650Z,4.44
2019-03-25T18:15:47.338Z,4.44
2019-03-25T18:18:13.484Z,4.48
2019-03-25T18:20:39.622Z,4.49
2019-03-25T18:23:05.789Z,4.48
2019-03-25T18:25:31.919Z,4.49
2019-03-25T18:27:58.055Z,4.47
2019-03-25T18:30:32.685Z,4.38
2019-03-25T18:32:58.819Z,4.23
2019-03-25T18:35:24.951Z,4.05
2019-03-25T18:37:51.121Z,4.05
2019-03-25T18:40:17.243Z,4.03
2019-03-25T18:42:43.395Z,4.04
2019-03-25T18:45:09.525Z,4.04
2019-03-25T18:47:35.656Z,4.04
2019-03-25T18:50:01.874Z,4.03
2019-03-25T18:52:28.044Z,4.04
2019-03-25T18:54:54.250Z,4.06
2019-03-25T18:57:20.391Z,4.05
2019-03-25T18:59:46.517Z,4.05
2019-03-25T19:02:12.656Z,4.04
2019-03-25T19:04:38.697Z,4.04
2019-03-25T19:07:04.948Z,4.02
2019-03-25T19:09:31.143Z,4.00
2019-03-25T19:11:57.327Z,4.01
2019-03-25T19:14:23.630Z,4.02
2019-03-25T19:16:49.773Z,4.01
2019-03-25T19:19:15.942Z,4.00
2019-03-25T19:21:42.138Z,3.98
2019-03-25T19:24:08.341Z,4.00
2019-03-25T19:26:34.549Z,4.01
2019-03-25T19:29:00.824Z,4.01
2019-03-25T19:31:27.172Z,4.01
2019-03-25T19:33:53.736Z,3.97
2019-03-25T19:36:19.868Z,3.96
2019-03-25T19:38:46.037Z,3.92
2019-03-25T19:41:12.286Z,3.92
2019-03-25T19:43:38.388Z,3.95
2019-03-25T19:46:07.556Z,3.90
2019-03-25T19:48:33.727Z,3.73
2019-03-25T19:50:59.894Z,3.54
2019-03-25T19:53:26.179Z,3.50
2019-03-25T19:55:52.502Z,3.56
2019-03-25T19:58:18.700Z,3.59
2019-03-25T20:00:45.014Z,3.64
2019-03-25T20:03:11.189Z,3.57
2019-03-25T20:05:37.358Z,3.48
2019-03-25T20:08:03.522Z,3.47
2019-03-25T20:10:32.068Z,3.51
2019-03-25T20:12:58.530Z,3.56
2019-03-25T20:15:24.750Z,3.49
2019-03-25T20:17:50.907Z,3.55
2019-03-25T20:20:17.116Z,3.61
2019-03-25T20:22:43.471Z,3.61
2019-03-25T20:25:09.785Z,3.58
2019-03-25T20:27:35.977Z,3.56
2019-03-25T20:30:05.658Z,3.57
2019-03-25T20:32:32.340Z,3.58
2019-03-25T20:34:58.667Z,3.58
2019-03-25T20:37:24.799Z,3.61
2019-03-25T20:39:50.941Z,3.59
2019-03-25T20:42:17.118Z,3.57
2019-03-25T20:44:43.250Z,3.57
2019-03-25T20:47:09.406Z,3.56
2019-03-25T20:49:35.777Z,3.56
2019-03-25T20:52:02.127Z,3.52
2019-03-25T20:54:28.356Z,3.49
2019-03-25T20:56:54.472Z,3.55
2019-03-25T20:59:20.542Z,3.51
2019-03-25T21:01:46.775Z,3.51
2019-03-25T21:04:12.880Z,3.56
2019-03-25T21:06:39.167Z,3.57
2019-03-25T21:09:06.052Z,3.58
2019-03-25T21:11:32.166Z,3.61
2019-03-25T21:13:58.355Z,3.64
2019-03-25T21:16:25.793Z,3.62
2019-03-25T21:18:52.397Z,3.64
2019-03-25T21:21:18.680Z,3.64
2019-03-25T21:23:46.883Z,3.63
2019-03-25T21:26:12.887Z,3.56
2019-03-25T21:28:39.220Z,3.54
2019-03-25T21:31:05.415Z,3.54
2019-03-25T21:33:31.615Z,3.46
2019-03-25T21:35:57.872Z,3.45
2019-03-25T21:38:24.229Z,3.43
2019-03-25T21:40:50.429Z,3.37
2019-03-25T21:43:16.676Z,3.24
2019-03-25T21:45:42.988Z,3.24
2019-03-25T21:48:09.206Z,3.23
2019-03-25T21:50:35.487Z,3.21
2019-03-25T21:53:01.567Z,3.24
2019-03-25T21:55:27.704Z,3.22
2019-03-25T21:57:54.026Z,3.15
2019-03-25T22:00:20.365Z,3.16
2019-03-25T22:02:48.546Z,3.14
2019-03-25T22:05:14.550Z,3.12
2019-03-25T22:07:40.693Z,3.15
2019-03-25T22:10:07.525Z,3.11
2019-03-25T22:12:33.765Z,3.13
2019-03-25T22:14:59.805Z,3.10
2019-03-25T22:17:26.062Z,3.12
2019-03-25T22:19:52.122Z,3.14
2019-03-25T22:22:18.169Z,3.11
2019-03-25T22:24:44.295Z,3.13
2019-03-25T22:27:10.355Z,3.13
2019-03-25T22:29:36.534Z,3.15
2019-03-25T22:32:02.794Z,3.13
2019-03-25T22:34:34.996Z,3.14
2019-03-25T22:37:00.471Z,3.15
2019-03-25T22:39:26.635Z,3.09
2019-03-25T22:41:52.777Z,3.05
2019-03-25T22:44:18.854Z,3.12
2019-03-25T22:46:44.987Z,3.19
2019-03-25T22:49:11.223Z,3.13
2019-03-25T22:51:37.564Z,3.13
2019-03-25T22:54:03.702Z,3.16
2019-03-25T22:56:29.856Z,3.25
2019-03-25T22:58:56.024Z,3.28
2019-03-25T23:01:22.789Z,3.34
2019-03-25T23:03:48.935Z,3.37
2019-03-25T23:06:15.110Z,3.38
2019-03-25T23:08:41.245Z,3.42
2019-03-25T23:11:07.386Z,3.44
2019-03-25T23:13:33.429Z,3.43
2019-03-25T23:15:59.597Z,3.43
2019-03-25T23:18:25.727Z,3.50
2019-03-25T23:20:51.868Z,3.47
2019-03-25T23:23:18.000Z,3.41
2019-03-25T23:25:48.716Z,3.38
2019-03-25T23:28:12.368Z,3.32
2019-03-25T23:30:38.507Z,3.29
2019-03-25T23:33:04.642Z,3.30
2019-03-25T23:35:30.769Z,3.29
2019-03-25T23:38:04.022Z,3.32
2019-03-25T23:40:30.225Z,3.24
2019-03-25T23:42:56.335Z,3.24
2019-03-25T23:45:22.369Z,3.28
2019-03-25T23:47:49.697Z,3.35
2019-03-25T23:50:15.833Z,3.34
2019-03-25T23:52:41.972Z,3.40
2019-03-25T23:55:08.296Z,3.40
2019-03-25T23:57:34.431Z,3.40
